Terminal Aerodrome Forecast
Issued by NWS

Home | Current Version | Previous Version | Text Only | Print | Product List | Glossary On
Versions: 1 2 3 4 5 6 7 8 9 10 11 12 13 14 15
000
FTUS45 KRIW 161122 CCA
TAFCPR
TAF COR
KCPR 161122Z 1612/1712 26008KT P6SM VCSH SCT030 BKN060
     FM161400 04011KT 2SM -SN SCT004 OVC015
     FM170600 03008KT 4SM -SN SCT009 OVC018
     FM171000 30006KT P6SM -SN OVC020=

USA.gov is the U.S. government's official web portal to all federal, state and local government web resources and services.